sensor_id;sensor_type;location;lat;lon;timestamp;temperature;humidity
76509;SHT31;65340;51.966;5.652;2023-01-01T00:00:24;16.4;59.1
76509;SHT31;65340;51.966;5.652;2023-01-01T00:02:55;16.4;59.3
76509;SHT31;65340;51.966;5.652;2023-01-01T00:05:25;16.4;59.4
76509;SHT31;65340;51.966;5.652;2023-01-01T00:07:54;16.4;59.2
76509;SHT31;65340;51.966;5.652;2023-01-01T00:10:25;16.4;59.3
76509;SHT31;65340;51.966;5.652;2023-01-01T00:12:58;16.5;59.2
76509;SHT31;65340;51.966;5.652;2023-01-01T00:15:28;16.5;59.1
76509;SHT31;65340;51.966;5.652;2023-01-01T00:17:58;16.5;59.1
76509;SHT31;65340;51.966;5.652;2023-01-01T00:20:28;16.5;59.2
76509;SHT31;65340;51.966;5.652;2023-01-01T00:22:57;16.4;59.1
76509;SHT31;65340;51.966;5.652;2023-01-01T00:25:29;16.5;59.2
76509;SHT31;65340;51.966;5.652;2023-01-01T00:27:59;16.5;59.1
76509;SHT31;65340;51.966;5.652;2023-01-01T00:30:29;16.5;59.0
76509;SHT31;65340;51.966;5.652;2023-01-01T00:32:59;16.5;59.1
76509;SHT31;65340;51.966;5.652;2023-01-01T00:35:28;16.5;59.2
76509;SHT31;65340;51.966;5.652;2023-01-01T00:38:00;16.5;59.1
76509;SHT31;65340;51.966;5.652;2023-01-01T00:40:32;16.5;59.0
76509;SHT31;65340;51.966;5.652;2023-01-01T00:43:02;16.5;59.1
76509;SHT31;65340;51.966;5.652;2023-01-01T00:45:31;16.5;59.2
76509;SHT31;65340;51.966;5.652;2023-01-01T00:48:01;16.5;59.1
76509;SHT31;65340;51.966;5.652;2023-01-01T00:50:31;16.5;59.0
76509;SHT31;65340;51.966;5.652;2023-01-01T00:53:00;16.5;58.8
76509;SHT31;65340;51.966;5.652;2023-01-01T00:55:30;16.4;59.1
76509;SHT31;65340;51.966;5.652;2023-01-01T00:58:01;16.4;58.8
76509;SHT31;65340;51.966;5.652;2023-01-01T01:00:31;16.4;59.0
76509;SHT31;65340;51.966;5.652;2023-01-01T01:03:01;16.4;59.2
76509;SHT31;65340;51.966;5.652;2023-01-01T01:05:31;16.4;59.2
76509;SHT31;65340;51.966;5.652;2023-01-01T01:08:05;16.5;58.8
76509;SHT31;65340;51.966;5.652;2023-01-01T01:10:35;16.5;58.9
76509;SHT31;65340;51.966;5.652;2023-01-01T01:13:05;16.4;59.2
76509;SHT31;65340;51.966;5.652;2023-01-01T01:15:34;16.4;59.0
76509;SHT31;65340;51.966;5.652;2023-01-01T01:18:04;16.4;58.9
76509;SHT31;65340;51.966;5.652;2023-01-01T01:20:36;16.4;59.0
76509;SHT31;65340;51.966;5.652;2023-01-01T01:23:05;16.4;59.3
76509;SHT31;65340;51.966;5.652;2023-01-01T01:25:35;16.4;59.3
76509;SHT31;65340;51.966;5.652;2023-01-01T01:28:05;16.4;59.0
76509;SHT31;65340;51.966;5.652;2023-01-01T01:30:36;16.4;59.1
76509;SHT31;65340;51.966;5.652;2023-01-01T01:33:08;16.4;59.3
76509;SHT31;65340;51.966;5.652;2023-01-01T01:35:38;16.4;59.4
76509;SHT31;65340;51.966;5.652;2023-01-01T01:38:09;16.4;59.4
76509;SHT31;65340;51.966;5.652;2023-01-01T01:40:43;16.4;59.1
76509;SHT31;65340;51.966;5.652;2023-01-01T01:43:22;16.4;59.1
76509;SHT31;65340;51.966;5.652;2023-01-01T01:45:58;16.4;59.2
76509;SHT31;65340;51.966;5.652;2023-01-01T01:48:32;16.4;59.3
76509;SHT31;65340;51.966;5.652;2023-01-01T01:51:06;16.4;59.2
76509;SHT31;65340;51.966;5.652;2023-01-01T01:53:41;16.4;58.9
76509;SHT31;65340;51.966;5.652;2023-01-01T01:56:17;16.4;58.8
76509;SHT31;65340;51.966;5.652;2023-01-01T01:58:50;16.4;59.0
76509;SHT31;65340;51.966;5.652;2023-01-01T02:01:20;16.3;59.2
76509;SHT31;65340;51.966;5.652;2023-01-01T02:03:58;16.4;59.3
76509;SHT31;65340;51.966;5.652;2023-01-01T02:06:30;16.4;59.1
76509;SHT31;65340;51.966;5.652;2023-01-01T02:09:03;16.4;58.8
76509;SHT31;65340;51.966;5.652;2023-01-01T02:11:33;16.4;58.9
76509;SHT31;65340;51.966;5.652;2023-01-01T02:14:03;16.4;59.1
76509;SHT31;65340;51.966;5.652;2023-01-01T02:16:37;16.4;59.3
76509;SHT31;65340;51.966;5.652;2023-01-01T02:19:22;16.4;58.7
76509;SHT31;65340;51.966;5.652;2023-01-01T02:22:01;16.3;59.1
76509;SHT31;65340;51.966;5.652;2023-01-01T02:24:42;16.4;58.8
76509;SHT31;65340;51.966;5.652;2023-01-01T02:27:27;16.4;59.0
76509;SHT31;65340;51.966;5.652;2023-01-01T02:30:03;16.4;59.0
76509;SHT31;65340;51.966;5.652;2023-01-01T02:32:37;16.4;58.5
76509;SHT31;65340;51.966;5.652;2023-01-01T02:35:15;16.4;58.7
76509;SHT31;65340;51.966;5.652;2023-01-01T02:38:11;16.4;58.5
76509;SHT31;65340;51.966;5.652;2023-01-01T02:40:46;16.4;58.5
76509;SHT31;65340;51.966;5.652;2023-01-01T02:43:17;16.4;58.7
76509;SHT31;65340;51.966;5.652;2023-01-01T02:45:47;16.3;58.7
76509;SHT31;65340;51.966;5.652;2023-01-01T02:48:41;16.4;58.6
76509;SHT31;65340;51.966;5.652;2023-01-01T02:51:19;16.3;58.7
76509;SHT31;65340;51.966;5.652;2023-01-01T02:54:00;16.3;58.7
76509;SHT31;65340;51.966;5.652;2023-01-01T02:56:39;16.3;58.8
76509;SHT31;65340;51.966;5.652;2023-01-01T02:59:22;16.3;58.6
76509;SHT31;65340;51.966;5.652;2023-01-01T03:02:21;16.3;58.8
76509;SHT31;65340;51.966;5.652;2023-01-01T03:05:04;16.3;58.8
76509;SHT31;65340;51.966;5.652;2023-01-01T03:07:40;16.3;58.9
76509;SHT31;65340;51.966;5.652;2023-01-01T03:10:18;16.3;58.2
76509;SHT31;65340;51.966;5.652;2023-01-01T03:12:55;16.3;58.6
76509;SHT31;65340;51.966;5.652;2023-01-01T03:15:35;16.3;58.7
76509;SHT31;65340;51.966;5.652;2023-01-01T03:18:16;16.3;58.5
76509;SHT31;65340;51.966;5.652;2023-01-01T03:20:50;16.3;58.3
76509;SHT31;65340;51.966;5.652;2023-01-01T03:23:28;16.3;58.6
76509;SHT31;65340;51.966;5.652;2023-01-01T03:26:07;16.3;58.4
76509;SHT31;65340;51.966;5.652;2023-01-01T03:28:42;16.3;58.0
76509;SHT31;65340;51.966;5.652;2023-01-01T03:31:17;16.3;58.3
76509;SHT31;65340;51.966;5.652;2023-01-01T03:33:51;16.3;58.1
76509;SHT31;65340;51.966;5.652;2023-01-01T03:36:27;16.3;58.2
76509;SHT31;65340;51.966;5.652;2023-01-01T03:39:04;16.3;58.2
76509;SHT31;65340;51.966;5.652;2023-01-01T03:41:39;16.3;58.0
76509;SHT31;65340;51.966;5.652;2023-01-01T03:44:16;16.3;58.4
76509;SHT31;65340;51.966;5.652;2023-01-01T03:46:49;16.3;58.4
76509;SHT31;65340;51.966;5.652;2023-01-01T03:49:19;16.3;58.1
76509;SHT31;65340;51.966;5.652;2023-01-01T03:52:03;16.3;58.2
76509;SHT31;65340;51.966;5.652;2023-01-01T03:54:44;16.3;58.0
76509;SHT31;65340;51.966;5.652;2023-01-01T03:57:20;16.3;57.9
76509;SHT31;65340;51.966;5.652;2023-01-01T04:00:01;16.3;58.2
76509;SHT31;65340;51.966;5.652;2023-01-01T04:02:38;16.3;58.1
76509;SHT31;65340;51.966;5.652;2023-01-01T04:05:09;16.3;58.0
76509;SHT31;65340;51.966;5.652;2023-01-01T04:07:40;16.3;58.1
76509;SHT31;65340;51.966;5.652;2023-01-01T04:10:10;16.3;58.3
76509;SHT31;65340;51.966;5.652;2023-01-01T04:12:48;16.3;57.8
76509;SHT31;65340;51.966;5.652;2023-01-01T04:15:20;16.3;58.2
76509;SHT31;65340;51.966;5.652;2023-01-01T04:17:51;16.3;57.8
76509;SHT31;65340;51.966;5.652;2023-01-01T04:20:22;16.3;58.0
76509;SHT31;65340;51.966;5.652;2023-01-01T04:22:54;16.2;58.0
76509;SHT31;65340;51.966;5.652;2023-01-01T04:25:25;16.2;58.1
76509;SHT31;65340;51.966;5.652;2023-01-01T04:27:55;16.2;58.0
76509;SHT31;65340;51.966;5.652;2023-01-01T04:30:25;16.2;58.0
76509;SHT31;65340;51.966;5.652;2023-01-01T04:32:55;16.2;58.1
76509;SHT31;65340;51.966;5.652;2023-01-01T04:35:25;16.2;58.0
76509;SHT31;65340;51.966;5.652;2023-01-01T04:37:54;16.2;58.3
76509;SHT31;65340;51.966;5.652;2023-01-01T04:40:25;16.2;58.3
76509;SHT31;65340;51.966;5.652;2023-01-01T04:42:55;16.2;58.2
76509;SHT31;65340;51.966;5.652;2023-01-01T04:45:24;16.2;58.4
76509;SHT31;65340;51.966;5.652;2023-01-01T04:47:54;16.2;58.4
76509;SHT31;65340;51.966;5.652;2023-01-01T04:50:24;16.2;58.1
76509;SHT31;65340;51.966;5.652;2023-01-01T04:52:53;16.2;58.3
76509;SHT31;65340;51.966;5.652;2023-01-01T04:55:23;16.2;58.4
76509;SHT31;65340;51.966;5.652;2023-01-01T04:57:52;16.2;58.3
76509;SHT31;65340;51.966;5.652;2023-01-01T05:00:22;16.2;58.3
76509;SHT31;65340;51.966;5.652;2023-01-01T05:02:52;16.2;58.7
76509;SHT31;65340;51.966;5.652;2023-01-01T05:05:21;16.3;58.5
76509;SHT31;65340;51.966;5.652;2023-01-01T05:07:52;16.3;58.3
76509;SHT31;65340;51.966;5.652;2023-01-01T05:10:21;16.2;58.3
76509;SHT31;65340;51.966;5.652;2023-01-01T05:12:51;16.2;58.6
76509;SHT31;65340;51.966;5.652;2023-01-01T05:15:21;16.2;58.6
76509;SHT31;65340;51.966;5.652;2023-01-01T05:17:50;16.2;58.7
76509;SHT31;65340;51.966;5.652;2023-01-01T05:20:20;16.1;58.7
76509;SHT31;65340;51.966;5.652;2023-01-01T05:22:50;16.1;58.9
76509;SHT31;65340;51.966;5.652;2023-01-01T05:25:20;16.1;59.0
76509;SHT31;65340;51.966;5.652;2023-01-01T05:27:49;16.1;59.1
76509;SHT31;65340;51.966;5.652;2023-01-01T05:30:20;16.1;59.1
76509;SHT31;65340;51.966;5.652;2023-01-01T05:32:49;16.1;59.1
76509;SHT31;65340;51.966;5.652;2023-01-01T05:35:19;16.1;59.0
76509;SHT31;65340;51.966;5.652;2023-01-01T05:37:49;16.1;59.0
76509;SHT31;65340;51.966;5.652;2023-01-01T05:40:21;16.1;58.5
76509;SHT31;65340;51.966;5.652;2023-01-01T05:42:53;16.1;58.2
76509;SHT31;65340;51.966;5.652;2023-01-01T05:45:23;16.1;58.3
76509;SHT31;65340;51.966;5.652;2023-01-01T05:47:52;16.1;58.4
76509;SHT31;65340;51.966;5.652;2023-01-01T05:50:23;16.1;58.3
76509;SHT31;65340;51.966;5.652;2023-01-01T05:52:52;16.0;58.5
76509;SHT31;65340;51.966;5.652;2023-01-01T05:55:24;16.0;58.5
76509;SHT31;65340;51.966;5.652;2023-01-01T05:57:56;16.0;58.6
76509;SHT31;65340;51.966;5.652;2023-01-01T06:00:27;16.0;58.6
76509;SHT31;65340;51.966;5.652;2023-01-01T06:02:57;16.0;58.5
76509;SHT31;65340;51.966;5.652;2023-01-01T06:05:27;16.0;58.4
76509;SHT31;65340;51.966;5.652;2023-01-01T06:07:58;16.0;58.7
76509;SHT31;65340;51.966;5.652;2023-01-01T06:10:27;16.0;58.0
76509;SHT31;65340;51.966;5.652;2023-01-01T06:12:57;16.0;57.6
76509;SHT31;65340;51.966;5.652;2023-01-01T06:15:27;16.0;57.5
76509;SHT31;65340;51.966;5.652;2023-01-01T06:17:57;16.0;57.7
76509;SHT31;65340;51.966;5.652;2023-01-01T06:20:26;16.0;57.5
76509;SHT31;65340;51.966;5.652;2023-01-01T06:22:57;16.0;57.5
76509;SHT31;65340;51.966;5.652;2023-01-01T06:25:26;16.0;57.7
76509;SHT31;65340;51.966;5.652;2023-01-01T06:27:58;16.0;57.7
76509;SHT31;65340;51.966;5.652;2023-01-01T06:30:27;16.0;57.5
76509;SHT31;65340;51.966;5.652;2023-01-01T06:32:58;16.0;57.6
76509;SHT31;65340;51.966;5.652;2023-01-01T06:35:27;15.9;57.6
76509;SHT31;65340;51.966;5.652;2023-01-01T06:37:59;16.0;57.6
76509;SHT31;65340;51.966;5.652;2023-01-01T06:40:29;16.0;57.7
76509;SHT31;65340;51.966;5.652;2023-01-01T06:42:59;16.0;57.6
76509;SHT31;65340;51.966;5.652;2023-01-01T06:45:28;16.0;57.6
76509;SHT31;65340;51.966;5.652;2023-01-01T06:47:58;16.0;57.7
76509;SHT31;65340;51.966;5.652;2023-01-01T06:50:27;16.0;57.7
76509;SHT31;65340;51.966;5.652;2023-01-01T06:52:57;16.0;57.5
76509;SHT31;65340;51.966;5.652;2023-01-01T06:55:27;16.0;57.5
76509;SHT31;65340;51.966;5.652;2023-01-01T06:57:56;16.0;57.4
76509;SHT31;65340;51.966;5.652;2023-01-01T07:00:26;16.0;57.3
76509;SHT31;65340;51.966;5.652;2023-01-01T07:02:56;16.0;57.3
76509;SHT31;65340;51.966;5.652;2023-01-01T07:05:25;16.0;57.3
76509;SHT31;65340;51.966;5.652;2023-01-01T07:07:55;16.0;57.2
76509;SHT31;65340;51.966;5.652;2023-01-01T07:10:24;16.0;57.3
76509;SHT31;65340;51.966;5.652;2023-01-01T07:12:54;16.1;57.0
76509;SHT31;65340;51.966;5.652;2023-01-01T07:15:24;16.1;56.9
76509;SHT31;65340;51.966;5.652;2023-01-01T07:17:53;16.1;56.8
76509;SHT31;65340;51.966;5.652;2023-01-01T07:20:23;16.1;56.8
76509;SHT31;65340;51.966;5.652;2023-01-01T07:22:53;16.1;56.6
76509;SHT31;65340;51.966;5.652;2023-01-01T07:25:23;16.1;56.8
76509;SHT31;65340;51.966;5.652;2023-01-01T07:27:52;16.1;56.6
76509;SHT31;65340;51.966;5.652;2023-01-01T07:30:22;16.1;56.6
76509;SHT31;65340;51.966;5.652;2023-01-01T07:32:55;16.1;56.5
76509;SHT31;65340;51.966;5.652;2023-01-01T07:35:24;16.2;56.6
76509;SHT31;65340;51.966;5.652;2023-01-01T07:37:54;16.2;56.6
76509;SHT31;65340;51.966;5.652;2023-01-01T07:40:24;16.2;56.4
76509;SHT31;65340;51.966;5.652;2023-01-01T07:42:53;16.2;56.4
76509;SHT31;65340;51.966;5.652;2023-01-01T07:45:23;16.2;56.3
76509;SHT31;65340;51.966;5.652;2023-01-01T07:47:55;16.1;56.4
76509;SHT31;65340;51.966;5.652;2023-01-01T07:50:27;16.1;56.5
76509;SHT31;65340;51.966;5.652;2023-01-01T07:52:57;16.1;56.6
76509;SHT31;65340;51.966;5.652;2023-01-01T07:55:27;16.1;56.8
76509;SHT31;65340;51.966;5.652;2023-01-01T07:57:57;16.1;56.7
76509;SHT31;65340;51.966;5.652;2023-01-01T08:00:27;16.1;56.7
76509;SHT31;65340;51.966;5.652;2023-01-01T08:02:57;16.1;56.8
76509;SHT31;65340;51.966;5.652;2023-01-01T08:05:27;16.1;56.7
76509;SHT31;65340;51.966;5.652;2023-01-01T08:07:57;16.0;56.8
76509;SHT31;65340;51.966;5.652;2023-01-01T08:10:26;16.1;57.0
76509;SHT31;65340;51.966;5.652;2023-01-01T08:13:00;16.1;56.8
76509;SHT31;65340;51.966;5.652;2023-01-01T08:15:33;16.0;57.0
76509;SHT31;65340;51.966;5.652;2023-01-01T08:18:04;16.0;56.9
76509;SHT31;65340;51.966;5.652;2023-01-01T08:20:34;16.0;57.1
76509;SHT31;65340;51.966;5.652;2023-01-01T08:23:03;16.0;57.0
76509;SHT31;65340;51.966;5.652;2023-01-01T08:25:33;16.0;57.2
76509;SHT31;65340;51.966;5.652;2023-01-01T08:28:03;16.0;57.2
76509;SHT31;65340;51.966;5.652;2023-01-01T08:30:33;16.0;57.1
76509;SHT31;65340;51.966;5.652;2023-01-01T08:33:03;16.0;57.1
76509;SHT31;65340;51.966;5.652;2023-01-01T08:35:35;16.0;57.2
76509;SHT31;65340;51.966;5.652;2023-01-01T08:38:06;16.0;57.2
76509;SHT31;65340;51.966;5.652;2023-01-01T08:40:36;16.0;57.2
76509;SHT31;65340;51.966;5.652;2023-01-01T08:43:08;16.0;57.1
76509;SHT31;65340;51.966;5.652;2023-01-01T08:45:37;16.0;57.0
76509;SHT31;65340;51.966;5.652;2023-01-01T08:48:08;16.0;57.2
76509;SHT31;65340;51.966;5.652;2023-01-01T08:50:37;16.0;57.2
76509;SHT31;65340;51.966;5.652;2023-01-01T08:53:09;16.0;57.3
76509;SHT31;65340;51.966;5.652;2023-01-01T08:55:38;16.0;57.4
76509;SHT31;65340;51.966;5.652;2023-01-01T08:58:08;16.0;57.3
76509;SHT31;65340;51.966;5.652;2023-01-01T09:00:39;16.0;57.2
76509;SHT31;65340;51.966;5.652;2023-01-01T09:03:09;16.0;57.2
76509;SHT31;65340;51.966;5.652;2023-01-01T09:05:38;16.0;57.3
76509;SHT31;65340;51.966;5.652;2023-01-01T09:08:12;16.0;57.4
76509;SHT31;65340;51.966;5.652;2023-01-01T09:10:42;16.1;57.3
76509;SHT31;65340;51.966;5.652;2023-01-01T09:13:16;16.1;57.2
76509;SHT31;65340;51.966;5.652;2023-01-01T09:15:46;16.1;57.3
76509;SHT31;65340;51.966;5.652;2023-01-01T09:18:16;16.1;57.4
76509;SHT31;65340;51.966;5.652;2023-01-01T09:20:46;16.1;57.5
76509;SHT31;65340;51.966;5.652;2023-01-01T09:23:16;16.1;57.4
76509;SHT31;65340;51.966;5.652;2023-01-01T09:25:46;16.1;57.5
76509;SHT31;65340;51.966;5.652;2023-01-01T09:28:16;16.1;57.5
76509;SHT31;65340;51.966;5.652;2023-01-01T09:30:46;16.1;57.5
76509;SHT31;65340;51.966;5.652;2023-01-01T09:33:15;16.1;57.7
76509;SHT31;65340;51.966;5.652;2023-01-01T09:35:45;16.1;57.7
76509;SHT31;65340;51.966;5.652;2023-01-01T09:38:15;16.1;57.7
76509;SHT31;65340;51.966;5.652;2023-01-01T09:40:55;16.1;57.7
76509;SHT31;65340;51.966;5.652;2023-01-01T09:43:38;16.1;57.8
76509;SHT31;65340;51.966;5.652;2023-01-01T09:46:10;16.1;57.8
76509;SHT31;65340;51.966;5.652;2023-01-01T09:48:50;16.1;58.0
76509;SHT31;65340;51.966;5.652;2023-01-01T09:51:22;16.1;58.0
76509;SHT31;65340;51.966;5.652;2023-01-01T09:53:59;16.1;58.1
76509;SHT31;65340;51.966;5.652;2023-01-01T09:56:31;16.1;58.2
76509;SHT31;65340;51.966;5.652;2023-01-01T09:59:08;16.1;58.2
76509;SHT31;65340;51.966;5.652;2023-01-01T10:01:47;16.1;58.3
76509;SHT31;65340;51.966;5.652;2023-01-01T10:04:30;16.1;58.3
76509;SHT31;65340;51.966;5.652;2023-01-01T10:07:13;16.1;58.3
76509;SHT31;65340;51.966;5.652;2023-01-01T10:09:57;16.1;58.4
76509;SHT31;65340;51.966;5.652;2023-01-01T10:12:38;16.1;58.5
76509;SHT31;65340;51.966;5.652;2023-01-01T10:15:15;16.1;58.6
76509;SHT31;65340;51.966;5.652;2023-01-01T10:17:48;16.1;58.6
76509;SHT31;65340;51.966;5.652;2023-01-01T10:20:24;16.1;58.8
76509;SHT31;65340;51.966;5.652;2023-01-01T10:23:00;16.1;58.9
76509;SHT31;65340;51.966;5.652;2023-01-01T10:25:33;16.1;59.0
76509;SHT31;65340;51.966;5.652;2023-01-01T10:28:09;16.1;59.0
76509;SHT31;65340;51.966;5.652;2023-01-01T10:30:41;16.1;59.2
76509;SHT31;65340;51.966;5.652;2023-01-01T10:33:12;16.1;59.1
76509;SHT31;65340;51.966;5.652;2023-01-01T10:35:46;16.1;59.1
76509;SHT31;65340;51.966;5.652;2023-01-01T10:38:21;16.1;59.1
76509;SHT31;65340;51.966;5.652;2023-01-01T10:40:55;16.1;59.2
76509;SHT31;65340;51.966;5.652;2023-01-01T10:43:26;16.1;59.2
76509;SHT31;65340;51.966;5.652;2023-01-01T10:46:02;16.2;59.2
76509;SHT31;65340;51.966;5.652;2023-01-01T10:48:32;16.2;59.2
76509;SHT31;65340;51.966;5.652;2023-01-01T10:51:05;16.2;59.1
76509;SHT31;65340;51.966;5.652;2023-01-01T10:53:37;16.2;59.1
76509;SHT31;65340;51.966;5.652;2023-01-01T10:56:11;16.2;59.1
76509;SHT31;65340;51.966;5.652;2023-01-01T10:58:44;16.2;59.1
76509;SHT31;65340;51.966;5.652;2023-01-01T11:01:21;16.3;59.0
76509;SHT31;65340;51.966;5.652;2023-01-01T11:03:56;16.2;59.2
76509;SHT31;65340;51.966;5.652;2023-01-01T11:06:31;16.2;59.2
76509;SHT31;65340;51.966;5.652;2023-01-01T11:09:04;16.2;59.4
76509;SHT31;65340;51.966;5.652;2023-01-01T11:11:41;16.2;59.4
76509;SHT31;65340;51.966;5.652;2023-01-01T11:14:20;16.2;59.4
76509;SHT31;65340;51.966;5.652;2023-01-01T11:16:52;16.3;59.3
76509;SHT31;65340;51.966;5.652;2023-01-01T11:19:27;16.3;59.4
76509;SHT31;65340;51.966;5.652;2023-01-01T11:21:58;16.3;59.3
76509;SHT31;65340;51.966;5.652;2023-01-01T11:24:29;16.3;59.3
76509;SHT31;65340;51.966;5.652;2023-01-01T11:27:19;16.3;59.4
76509;SHT31;65340;51.966;5.652;2023-01-01T11:29:50;16.3;59.4
76509;SHT31;65340;51.966;5.652;2023-01-01T11:32:30;16.3;59.4
76509;SHT31;65340;51.966;5.652;2023-01-01T11:35:04;16.3;59.5
76509;SHT31;65340;51.966;5.652;2023-01-01T11:37:37;16.3;59.5
76509;SHT31;65340;51.966;5.652;2023-01-01T11:40:17;16.3;59.7
76509;SHT31;65340;51.966;5.652;2023-01-01T11:42:50;16.3;59.6
76509;SHT31;65340;51.966;5.652;2023-01-01T11:45:24;16.3;59.8
76509;SHT31;65340;51.966;5.652;2023-01-01T11:47:58;16.3;59.9
76509;SHT31;65340;51.966;5.652;2023-01-01T11:50:32;16.3;60.0
76509;SHT31;65340;51.966;5.652;2023-01-01T11:53:28;16.3;60.0
76509;SHT31;65340;51.966;5.652;2023-01-01T11:56:05;16.3;60.2
76509;SHT31;65340;51.966;5.652;2023-01-01T11:58:47;16.3;60.2
76509;SHT31;65340;51.966;5.652;2023-01-01T12:01:27;16.2;60.3
76509;SHT31;65340;51.966;5.652;2023-01-01T12:04:05;16.3;60.3
76509;SHT31;65340;51.966;5.652;2023-01-01T12:06:39;16.3;60.5
76509;SHT31;65340;51.966;5.652;2023-01-01T12:09:14;16.3;60.5
76509;SHT31;65340;51.966;5.652;2023-01-01T12:11:50;16.3;60.4
76509;SHT31;65340;51.966;5.652;2023-01-01T12:14:25;16.4;60.3
76509;SHT31;65340;51.966;5.652;2023-01-01T12:17:02;16.4;60.2
76509;SHT31;65340;51.966;5.652;2023-01-01T12:19:39;16.4;60.1
76509;SHT31;65340;51.966;5.652;2023-01-01T12:22:15;16.4;60.1
76509;SHT31;65340;51.966;5.652;2023-01-01T12:24:47;16.5;60.1
76509;SHT31;65340;51.966;5.652;2023-01-01T12:27:28;16.5;60.0
76509;SHT31;65340;51.966;5.652;2023-01-01T12:30:05;16.6;60.1
76509;SHT31;65340;51.966;5.652;2023-01-01T12:33:09;16.7;60.2
76509;SHT31;65340;51.966;5.652;2023-01-01T12:35:58;17.1;58.8
76509;SHT31;65340;51.966;5.652;2023-01-01T12:41:34;17.2;58.1
76509;SHT31;65340;51.966;5.652;2023-01-01T12:44:15;17.2;58.1
76509;SHT31;65340;51.966;5.652;2023-01-01T12:46:54;17.2;58.1
76509;SHT31;65340;51.966;5.652;2023-01-01T12:49:39;17.2;58.1
76509;SHT31;65340;51.966;5.652;2023-01-01T12:52:26;17.1;58.1
76509;SHT31;65340;51.966;5.652;2023-01-01T12:55:52;17.1;58.2
76509;SHT31;65340;51.966;5.652;2023-01-01T12:58:32;17.0;58.4
76509;SHT31;65340;51.966;5.652;2023-01-01T13:01:09;16.9;58.6
76509;SHT31;65340;51.966;5.652;2023-01-01T13:03:47;16.9;58.7
76509;SHT31;65340;51.966;5.652;2023-01-01T13:06:22;16.8;58.8
76509;SHT31;65340;51.966;5.652;2023-01-01T13:09:00;16.8;59.0
76509;SHT31;65340;51.966;5.652;2023-01-01T13:11:34;16.7;59.0
76509;SHT31;65340;51.966;5.652;2023-01-01T13:14:04;16.7;59.1
76509;SHT31;65340;51.966;5.652;2023-01-01T13:16:37;16.7;59.1
76509;SHT31;65340;51.966;5.652;2023-01-01T13:19:25;16.7;59.2
76509;SHT31;65340;51.966;5.652;2023-01-01T13:21:56;16.6;59.2
76509;SHT31;65340;51.966;5.652;2023-01-01T13:24:26;16.6;59.2
76509;SHT31;65340;51.966;5.652;2023-01-01T13:26:58;16.6;59.2
76509;SHT31;65340;51.966;5.652;2023-01-01T13:29:44;16.6;59.2
76509;SHT31;65340;51.966;5.652;2023-01-01T13:32:16;16.6;59.2
76509;SHT31;65340;51.966;5.652;2023-01-01T13:35:18;16.6;59.2
76509;SHT31;65340;51.966;5.652;2023-01-01T13:37:48;16.6;59.3
76509;SHT31;65340;51.966;5.652;2023-01-01T13:43:30;16.5;59.5
76509;SHT31;65340;51.966;5.652;2023-01-01T13:46:02;16.5;59.5
76509;SHT31;65340;51.966;5.652;2023-01-01T13:49:17;16.5;59.6
76509;SHT31;65340;51.966;5.652;2023-01-01T13:52:03;16.5;59.7
76509;SHT31;65340;51.966;5.652;2023-01-01T13:56:19;16.4;59.7
76509;SHT31;65340;51.966;5.652;2023-01-01T13:59:07;16.4;59.7
76509;SHT31;65340;51.966;5.652;2023-01-01T14:01:56;16.5;59.7
76509;SHT31;65340;51.966;5.652;2023-01-01T14:04:37;16.5;59.7
76509;SHT31;65340;51.966;5.652;2023-01-01T14:07:18;16.5;59.6
76509;SHT31;65340;51.966;5.652;2023-01-01T14:09:49;16.5;59.7
76509;SHT31;65340;51.966;5.652;2023-01-01T14:12:20;16.5;59.7
76509;SHT31;65340;51.966;5.652;2023-01-01T14:14:50;16.5;59.7
76509;SHT31;65340;51.966;5.652;2023-01-01T14:17:20;16.5;59.7
76509;SHT31;65340;51.966;5.652;2023-01-01T14:19:50;16.5;59.6
76509;SHT31;65340;51.966;5.652;2023-01-01T14:22:20;16.5;59.6
76509;SHT31;65340;51.966;5.652;2023-01-01T14:24:50;16.5;59.5
76509;SHT31;65340;51.966;5.652;2023-01-01T14:27:21;16.5;59.5
76509;SHT31;65340;51.966;5.652;2023-01-01T14:29:53;16.5;59.5
76509;SHT31;65340;51.966;5.652;2023-01-01T14:32:24;16.5;59.5
76509;SHT31;65340;51.966;5.652;2023-01-01T14:35:01;16.5;59.5
76509;SHT31;65340;51.966;5.652;2023-01-01T14:37:31;16.5;59.4
76509;SHT31;65340;51.966;5.652;2023-01-01T14:40:16;16.5;59.5
76509;SHT31;65340;51.966;5.652;2023-01-01T14:42:53;16.5;59.5
76509;SHT31;65340;51.966;5.652;2023-01-01T14:45:24;16.5;59.5
76509;SHT31;65340;51.966;5.652;2023-01-01T14:47:56;16.5;59.5
76509;SHT31;65340;51.966;5.652;2023-01-01T14:50:29;16.5;59.5
76509;SHT31;65340;51.966;5.652;2023-01-01T14:53:04;16.5;59.5
76509;SHT31;65340;51.966;5.652;2023-01-01T14:55:39;16.5;59.5
76509;SHT31;65340;51.966;5.652;2023-01-01T14:58:15;16.5;59.5
76509;SHT31;65340;51.966;5.652;2023-01-01T15:00:45;16.5;59.5
76509;SHT31;65340;51.966;5.652;2023-01-01T15:03:17;16.5;59.4
76509;SHT31;65340;51.966;5.652;2023-01-01T15:05:58;16.5;59.5
76509;SHT31;65340;51.966;5.652;2023-01-01T15:08:28;16.5;59.5
76509;SHT31;65340;51.966;5.652;2023-01-01T15:11:02;16.5;59.5
76509;SHT31;65340;51.966;5.652;2023-01-01T15:13:32;16.5;59.6
76509;SHT31;65340;51.966;5.652;2023-01-01T15:16:17;16.4;59.6
76509;SHT31;65340;51.966;5.652;2023-01-01T15:18:48;16.4;59.7
76509;SHT31;65340;51.966;5.652;2023-01-01T15:21:35;16.4;59.7
76509;SHT31;65340;51.966;5.652;2023-01-01T15:24:13;16.4;59.8
76509;SHT31;65340;51.966;5.652;2023-01-01T15:26:51;16.3;59.9
76509;SHT31;65340;51.966;5.652;2023-01-01T15:29:26;16.3;60.0
76509;SHT31;65340;51.966;5.652;2023-01-01T15:31:59;16.3;60.0
76509;SHT31;65340;51.966;5.652;2023-01-01T15:34:32;16.3;60.0
76509;SHT31;65340;51.966;5.652;2023-01-01T15:37:09;16.3;60.0
76509;SHT31;65340;51.966;5.652;2023-01-01T15:39:51;16.3;60.0
76509;SHT31;65340;51.966;5.652;2023-01-01T15:42:32;16.3;60.1
76509;SHT31;65340;51.966;5.652;2023-01-01T15:45:37;16.3;60.0
76509;SHT31;65340;51.966;5.652;2023-01-01T15:48:19;16.3;60.0
76509;SHT31;65340;51.966;5.652;2023-01-01T15:51:01;16.3;59.9
76509;SHT31;65340;51.966;5.652;2023-01-01T15:53:45;16.3;59.8
76509;SHT31;65340;51.966;5.652;2023-01-01T15:56:16;16.3;60.0
76509;SHT31;65340;51.966;5.652;2023-01-01T15:58:51;16.3;59.9
76509;SHT31;65340;51.966;5.652;2023-01-01T16:01:25;16.3;60.0
76509;SHT31;65340;51.966;5.652;2023-01-01T16:04:00;16.3;59.9
76509;SHT31;65340;51.966;5.652;2023-01-01T16:06:31;16.3;59.9
76509;SHT31;65340;51.966;5.652;2023-01-01T16:09:01;16.3;59.9
76509;SHT31;65340;51.966;5.652;2023-01-01T16:11:30;16.3;59.8
76509;SHT31;65340;51.966;5.652;2023-01-01T16:14:00;16.3;59.8
76509;SHT31;65340;51.966;5.652;2023-01-01T16:16:31;16.3;59.7
76509;SHT31;65340;51.966;5.652;2023-01-01T16:19:01;16.3;59.7
76509;SHT31;65340;51.966;5.652;2023-01-01T16:21:32;16.3;59.7
76509;SHT31;65340;51.966;5.652;2023-01-01T16:24:02;16.4;59.6
76509;SHT31;65340;51.966;5.652;2023-01-01T16:26:32;16.4;59.5
76509;SHT31;65340;51.966;5.652;2023-01-01T16:29:02;16.4;59.5
76509;SHT31;65340;51.966;5.652;2023-01-01T16:31:31;16.4;59.4
76509;SHT31;65340;51.966;5.652;2023-01-01T16:34:02;16.4;59.4
76509;SHT31;65340;51.966;5.652;2023-01-01T16:36:32;16.4;59.4
76509;SHT31;65340;51.966;5.652;2023-01-01T16:39:02;16.4;59.4
76509;SHT31;65340;51.966;5.652;2023-01-01T16:41:31;16.4;59.3
76509;SHT31;65340;51.966;5.652;2023-01-01T16:44:01;16.4;59.4
76509;SHT31;65340;51.966;5.652;2023-01-01T16:46:31;16.4;59.3
76509;SHT31;65340;51.966;5.652;2023-01-01T16:49:01;16.4;59.3
76509;SHT31;65340;51.966;5.652;2023-01-01T16:51:32;16.4;59.4